createdAt,value
2023-01-29T00:01:36.503Z,99757.88
2023-01-29T00:04:03.651Z,99727.91
2023-01-29T00:06:30.799Z,99748.69
2023-01-29T00:08:58.026Z,99736.97
2023-01-29T00:11:25.016Z,99737.97
2023-01-29T00:13:52.984Z,99723.06
2023-01-29T00:16:19.940Z,99715.13
2023-01-29T00:18:46.895Z,99712.41
2023-01-29T00:21:16.464Z,99734.69
2023-01-29T00:23:43.575Z,99734.66
2023-01-29T00:26:10.779Z,99699.38
2023-01-29T00:28:41.313Z,99712.59
2023-01-29T00:31:13.721Z,99721.59
2023-01-29T00:33:41.238Z,99735.19
2023-01-29T00:36:11.345Z,99725.19
2023-01-29T00:38:39.465Z,99711.38
2023-01-29T00:41:11.797Z,99706.09
2023-01-29T00:43:38.743Z,99697.13
2023-01-29T00:46:05.609Z,99708.22
2023-01-29T00:48:32.891Z,99720.75
2023-01-29T00:50:59.798Z,99715.34
2023-01-29T00:53:27.469Z,99677.78
2023-01-29T00:55:54.348Z,99684.72
2023-01-29T00:58:21.299Z,99692.78
2023-01-29T01:00:51.873Z,99689.16
2023-01-29T01:03:18.830Z,99708.31
2023-01-29T01:05:47.359Z,99700.88
2023-01-29T01:08:14.545Z,99680.34
2023-01-29T01:10:42.464Z,99688.06
2023-01-29T01:13:09.423Z,99664.03
2023-01-29T01:15:39.200Z,99696.88
2023-01-29T01:18:06.540Z,99676.88
2023-01-29T01:20:36.075Z,99694.41
2023-01-29T01:23:04.018Z,99658.59
2023-01-29T01:25:31.160Z,99657.81
2023-01-29T01:30:26.095Z,99648.22
2023-01-29T01:32:53.435Z,99633.38
2023-01-29T01:35:20.610Z,99627.31
2023-01-29T01:37:47.615Z,99658.94
2023-01-29T01:40:22.905Z,99645.69
2023-01-29T01:42:52.733Z,99665.59
2023-01-29T01:45:30.461Z,99645.97
2023-01-29T01:48:11.357Z,99636.84
2023-01-29T01:50:50.498Z,99652.94
2023-01-29T01:53:23.973Z,99658.56
2023-01-29T01:55:56.167Z,99648.88
2023-01-29T01:58:28.233Z,99641.59
2023-01-29T02:00:55.903Z,99652.66
2023-01-29T02:03:25.289Z,99650.81
2023-01-29T02:05:55.622Z,99661.22
2023-01-29T02:08:38.051Z,99639.03
2023-01-29T02:11:06.273Z,99623.19
2023-01-29T02:13:33.335Z,99587.16
2023-01-29T02:16:00.360Z,99659.00
2023-01-29T02:18:27.251Z,99600.50
2023-01-29T02:21:36.768Z,99615.03
2023-01-29T02:24:45.084Z,99599.22
2023-01-29T02:27:39.639Z,99618.63
2023-01-29T02:30:24.549Z,99602.28
2023-01-29T02:33:11.253Z,99587.00
2023-01-29T02:35:46.544Z,99600.75
2023-01-29T02:38:19.886Z,99594.56
2023-01-29T02:41:02.139Z,99601.22
2023-01-29T02:43:53.111Z,99594.19
2023-01-29T02:46:51.132Z,99584.47
2023-01-29T02:49:40.856Z,99569.16
2023-01-29T02:52:40.689Z,99586.44
2023-01-29T02:55:18.279Z,99578.56
2023-01-29T02:57:49.381Z,99582.59
2023-01-29T03:00:21.236Z,99573.19
2023-01-29T03:02:59.459Z,99600.81
2023-01-29T03:05:33.825Z,99591.88
2023-01-29T03:08:07.934Z,99587.50
2023-01-29T03:10:43.954Z,99572.03
2023-01-29T03:13:52.895Z,99562.34
2023-01-29T03:16:34.321Z,99605.75
2023-01-29T03:19:15.510Z,99580.28
2023-01-29T03:21:47.727Z,99587.31
2023-01-29T03:24:23.361Z,99589.97
2023-01-29T03:26:53.106Z,99573.53
2023-01-29T03:29:21.231Z,99587.53
2023-01-29T03:31:49.466Z,99580.22
2023-01-29T03:34:21.605Z,99579.34
2023-01-29T03:36:59.891Z,99585.16
2023-01-29T03:39:29.124Z,99572.69
2023-01-29T03:42:35.041Z,99600.47
2023-01-29T03:45:36.093Z,99593.13
2023-01-29T03:48:27.436Z,99582.38
2023-01-29T03:51:09.647Z,99611.66
2023-01-29T03:53:52.834Z,99624.13
2023-01-29T03:56:25.829Z,99629.00
2023-01-29T03:59:04.865Z,99623.53
2023-01-29T04:01:57.987Z,99614.31
2023-01-29T04:04:29.320Z,99601.03
2023-01-29T04:07:04.351Z,99610.06
2023-01-29T04:09:57.686Z,99631.03
2023-01-29T04:12:29.698Z,99647.13
2023-01-29T04:15:01.550Z,99615.03
2023-01-29T04:17:37.494Z,99595.50
2023-01-29T04:20:12.654Z,99624.19
2023-01-29T04:22:46.544Z,99621.56
2023-01-29T04:25:17.324Z,99601.25
2023-01-29T04:28:09.230Z,99624.25
2023-01-29T04:30:42.715Z,99611.25
2023-01-29T04:33:09.684Z,99624.25
2023-01-29T04:36:01.576Z,99626.34
2023-01-29T04:38:34.804Z,99607.22
2023-01-29T04:41:26.047Z,99609.03
2023-01-29T04:43:55.767Z,99629.50
2023-01-29T04:46:51.655Z,99623.13
2023-01-29T04:49:27.818Z,99614.44
2023-01-29T04:52:05.972Z,99614.22
2023-01-29T04:54:38.759Z,99601.03
2023-01-29T04:57:08.536Z,99605.16
2023-01-29T04:59:57.666Z,99619.97
2023-01-29T05:02:26.866Z,99627.66
2023-01-29T05:04:55.446Z,99618.47
2023-01-29T05:07:26.026Z,99579.31
2023-01-29T05:09:53.374Z,99617.72
2023-01-29T05:12:21.454Z,99580.41
2023-01-29T05:14:51.097Z,99592.16
2023-01-29T05:17:20.657Z,99590.66
2023-01-29T05:19:47.994Z,99571.25
2023-01-29T05:22:18.051Z,99572.75
2023-01-29T05:24:44.902Z,99577.25
2023-01-29T05:27:20.202Z,99564.03
2023-01-29T05:29:47.888Z,99567.09
2023-01-29T05:32:15.466Z,99588.34
2023-01-29T05:34:42.525Z,99555.59
2023-01-29T05:37:10.525Z,99587.00
2023-01-29T05:39:37.486Z,99601.09
2023-01-29T05:42:04.934Z,99580.66
2023-01-29T05:44:31.893Z,99581.94
2023-01-29T05:46:58.765Z,99598.78
2023-01-29T05:49:25.776Z,99578.59
2023-01-29T05:51:52.918Z,99567.66
2023-01-29T05:54:19.998Z,99629.44
2023-01-29T05:56:47.014Z,99558.97
2023-01-29T05:59:15.888Z,99588.63
2023-01-29T06:01:42.850Z,99567.19
2023-01-29T06:04:09.828Z,99573.31
2023-01-29T06:06:36.767Z,99576.03
2023-01-29T06:09:03.902Z,99564.81
2023-01-29T06:11:30.813Z,99572.75
2023-01-29T06:13:58.068Z,99553.13
2023-01-29T06:16:25.804Z,99551.84
2023-01-29T06:18:52.805Z,99561.06
2023-01-29T06:21:20.229Z,99566.44
2023-01-29T06:23:47.328Z,99544.69
2023-01-29T06:26:16.055Z,99543.72
2023-01-29T06:28:43.311Z,99556.75
2023-01-29T06:31:27.447Z,99554.44
2023-01-29T06:33:58.722Z,99540.09
2023-01-29T06:36:25.655Z,99559.28
2023-01-29T06:38:52.560Z,99547.47
2023-01-29T06:41:20.231Z,99529.81
2023-01-29T06:43:47.330Z,99544.59
2023-01-29T06:46:14.621Z,99523.78
2023-01-29T06:48:41.839Z,99528.59
2023-01-29T06:51:10.981Z,99557.38
2023-01-29T06:53:39.523Z,99515.19
2023-01-29T06:56:07.660Z,99524.69
2023-01-29T06:58:37.618Z,99521.09
2023-01-29T07:01:29.043Z,99528.00
2023-01-29T07:04:00.315Z,99534.66
2023-01-29T07:06:28.974Z,99498.56
2023-01-29T07:08:56.163Z,99536.59
2023-01-29T07:11:23.113Z,99522.63
2023-01-29T07:13:50.041Z,99537.13
2023-01-29T07:16:16.977Z,99531.94
2023-01-29T07:18:43.990Z,99513.91
2023-01-29T07:21:10.942Z,99515.44
2023-01-29T07:23:37.970Z,99539.44
2023-01-29T07:26:06.638Z,99493.75
2023-01-29T07:28:38.327Z,99522.19
2023-01-29T07:31:06.090Z,99511.19
2023-01-29T07:33:33.265Z,99498.97
2023-01-29T07:36:00.428Z,99492.50
2023-01-29T07:38:27.524Z,99493.47
2023-01-29T07:40:54.561Z,99506.13
2023-01-29T07:43:21.486Z,99482.50
2023-01-29T07:45:48.491Z,99475.00
2023-01-29T07:48:15.385Z,99481.19
2023-01-29T07:50:50.204Z,99476.34
2023-01-29T07:53:17.173Z,99494.50
2023-01-29T07:55:45.215Z,99500.16
2023-01-29T07:58:12.443Z,99476.53
2023-01-29T08:00:40.045Z,99493.09
2023-01-29T08:03:15.041Z,99475.63
2023-01-29T08:05:47.711Z,99493.50
2023-01-29T08:08:16.875Z,99473.13
2023-01-29T08:10:43.835Z,99468.34
2023-01-29T08:13:10.864Z,99481.72
2023-01-29T08:15:39.200Z,99479.84
2023-01-29T08:18:06.765Z,99484.22
2023-01-29T08:20:33.734Z,99476.69
2023-01-29T08:23:07.728Z,99472.72
2023-01-29T08:25:36.414Z,99463.28
2023-01-29T08:28:04.746Z,99465.91
2023-01-29T08:30:34.279Z,99464.00
2023-01-29T08:33:01.697Z,99453.50
2023-01-29T08:35:29.195Z,99444.09
2023-01-29T08:37:58.117Z,99441.72
2023-01-29T08:40:26.013Z,99451.84
2023-01-29T08:42:52.939Z,99426.47
2023-01-29T08:45:19.839Z,99395.16
2023-01-29T08:47:50.585Z,99427.78
2023-01-29T08:50:18.343Z,99410.59
2023-01-29T08:52:46.051Z,99417.50
2023-01-29T08:55:13.576Z,99397.44
2023-01-29T08:57:40.610Z,99413.53
2023-01-29T09:00:09.674Z,99390.97
2023-01-29T09:02:38.702Z,99411.88
2023-01-29T09:05:06.326Z,99387.38
2023-01-29T09:07:33.372Z,99426.19
2023-01-29T09:10:05.879Z,99390.06
2023-01-29T09:12:32.796Z,99394.63
2023-01-29T09:14:59.703Z,99367.97
2023-01-29T09:17:26.701Z,99366.34
2023-01-29T09:19:53.795Z,99382.28
2023-01-29T09:22:20.947Z,99381.38
2023-01-29T09:24:47.966Z,99364.25
2023-01-29T09:27:14.970Z,99348.50
2023-01-29T09:29:41.913Z,99381.22
2023-01-29T09:32:08.845Z,99391.88
2023-01-29T09:34:37.145Z,99385.75
2023-01-29T09:37:04.336Z,99368.97
2023-01-29T09:39:31.220Z,99366.66
2023-01-29T09:42:13.376Z,99346.00
2023-01-29T09:45:07.003Z,99344.38
2023-01-29T09:47:36.421Z,99333.81
2023-01-29T09:50:09.385Z,99352.00
2023-01-29T09:52:41.369Z,99362.06
2023-01-29T09:55:30.987Z,99339.94
2023-01-29T09:58:24.713Z,99366.03
2023-01-29T10:01:33.616Z,99319.22
2023-01-29T10:04:19.248Z,99325.16
2023-01-29T10:06:58.260Z,99335.81
2023-01-29T10:10:01.720Z,99349.34
2023-01-29T10:12:50.135Z,99327.06
2023-01-29T10:15:50.324Z,99315.19
2023-01-29T10:19:05.064Z,99317.13
2023-01-29T10:22:05.062Z,99314.50
2023-01-29T10:24:41.788Z,99313.44
2023-01-29T10:27:17.171Z,99307.06
2023-01-29T10:29:47.058Z,99307.66
2023-01-29T10:32:19.613Z,99292.19
2023-01-29T10:34:57.781Z,99305.41
2023-01-29T10:37:40.935Z,99299.81
2023-01-29T10:40:34.087Z,99294.44
2023-01-29T10:43:10.111Z,99275.63
2023-01-29T10:45:53.887Z,99296.69
2023-01-29T10:48:39.604Z,99286.38
2023-01-29T10:51:19.377Z,99295.97
2023-01-29T10:54:04.625Z,99279.53
2023-01-29T10:56:47.867Z,99318.59
2023-01-29T10:59:33.463Z,99311.63
2023-01-29T11:02:01.131Z,99293.25
2023-01-29T11:04:31.619Z,99296.47
2023-01-29T11:07:00.393Z,99292.03
2023-01-29T11:09:35.980Z,99259.84
2023-01-29T11:12:11.436Z,99287.03
2023-01-29T11:14:53.526Z,99277.63
2023-01-29T11:17:23.459Z,99263.34
2023-01-29T11:19:52.224Z,99267.28
2023-01-29T11:22:22.079Z,99266.22
2023-01-29T11:25:17.602Z,99254.69
2023-01-29T11:27:45.338Z,99283.69
2023-01-29T11:30:26.868Z,99286.28
2023-01-29T11:33:05.491Z,99274.72
2023-01-29T11:35:32.565Z,99270.50
2023-01-29T11:38:27.792Z,99267.88
2023-01-29T11:41:16.357Z,99257.69
2023-01-29T11:43:43.542Z,99256.03
2023-01-29T11:46:15.981Z,99263.03
2023-01-29T11:48:51.714Z,99267.59
2023-01-29T11:51:26.234Z,99256.81
2023-01-29T11:54:05.589Z,99272.00
2023-01-29T11:56:45.393Z,99244.81
2023-01-29T11:59:31.055Z,99260.31
2023-01-29T12:02:06.985Z,99265.63
2023-01-29T12:04:34.171Z,99230.22
2023-01-29T12:07:01.120Z,99250.72
2023-01-29T12:09:31.270Z,99249.69
2023-01-29T12:12:39.483Z,99246.00
2023-01-29T12:15:23.039Z,99250.28
2023-01-29T12:18:12.619Z,99250.41
2023-01-29T12:20:46.322Z,99218.84
2023-01-29T12:23:35.798Z,99211.69
2023-01-29T12:26:16.282Z,99218.38
2023-01-29T12:29:15.666Z,99209.38
2023-01-29T12:32:16.309Z,99234.72
2023-01-29T12:34:52.605Z,99216.25
2023-01-29T12:37:23.087Z,99216.22
2023-01-29T12:39:52.114Z,99219.38
2023-01-29T12:42:22.080Z,99220.28
2023-01-29T12:44:52.880Z,99220.59
2023-01-29T12:47:31.712Z,99201.19
2023-01-29T12:50:06.456Z,99204.19
2023-01-29T12:52:43.769Z,99198.63
2023-01-29T12:55:20.249Z,99203.03
2023-01-29T12:57:57.115Z,99202.25
2023-01-29T13:00:28.866Z,99189.19
2023-01-29T13:03:00.977Z,99177.69
2023-01-29T13:05:46.260Z,99183.75
2023-01-29T13:08:19.219Z,99180.25
2023-01-29T13:10:50.020Z,99184.03
2023-01-29T13:13:36.026Z,99172.06
2023-01-29T13:16:10.089Z,99163.41
2023-01-29T13:19:03.298Z,99189.34
2023-01-29T13:21:40.120Z,99184.50
2023-01-29T13:24:20.397Z,99176.16
2023-01-29T13:26:49.159Z,99188.31
2023-01-29T13:29:28.984Z,99161.75
2023-01-29T13:32:01.600Z,99175.84
2023-01-29T13:34:37.204Z,99181.63
2023-01-29T13:37:11.744Z,99174.94
2023-01-29T13:39:46.708Z,99172.81
2023-01-29T13:42:21.413Z,99181.47
2023-01-29T13:44:51.409Z,99174.50
2023-01-29T13:47:26.690Z,99163.88
2023-01-29T13:50:24.219Z,99182.84
2023-01-29T13:52:57.898Z,99164.94
2023-01-29T13:55:40.235Z,99143.53
2023-01-29T13:58:15.379Z,99171.28
2023-01-29T14:00:42.324Z,99162.34
2023-01-29T14:03:09.159Z,99151.22
2023-01-29T14:05:59.855Z,99167.78
2023-01-29T14:08:35.607Z,99146.75
2023-01-29T14:11:17.878Z,99181.09
2023-01-29T14:13:49.882Z,99162.59
2023-01-29T14:16:17.059Z,99172.91
2023-01-29T14:19:04.909Z,99148.69
2023-01-29T14:21:36.925Z,99135.75
2023-01-29T14:24:19.629Z,99165.25
2023-01-29T14:26:49.552Z,99152.94
2023-01-29T14:29:34.824Z,99152.31
2023-01-29T14:32:23.083Z,99171.75
2023-01-29T14:34:54.652Z,99148.94
2023-01-29T14:37:32.289Z,99154.88
2023-01-29T14:40:15.621Z,99140.19
2023-01-29T14:42:59.799Z,99130.41
2023-01-29T14:45:28.658Z,99126.47
2023-01-29T14:48:03.742Z,99134.41
2023-01-29T14:50:30.859Z,99127.28
2023-01-29T14:53:18.247Z,99111.16
2023-01-29T14:56:00.554Z,99071.53
2023-01-29T14:58:52.015Z,99103.97
2023-01-29T15:01:27.892Z,99078.16
2023-01-29T15:04:22.491Z,99106.16
2023-01-29T15:07:01.829Z,99105.00
2023-01-29T15:09:37.807Z,99105.50
2023-01-29T15:12:25.829Z,99143.13
2023-01-29T15:15:07.199Z,99116.50
2023-01-29T15:18:06.273Z,99135.38
2023-01-29T15:20:34.553Z,99119.00
2023-01-29T15:23:02.612Z,99119.00
2023-01-29T15:25:46.665Z,99130.50
2023-01-29T15:28:13.680Z,99126.25
2023-01-29T15:30:40.753Z,99120.94
2023-01-29T15:33:10.781Z,99113.84
2023-01-29T15:35:41.646Z,99114.66
2023-01-29T15:38:27.277Z,99115.31
2023-01-29T15:40:55.914Z,99116.75
2023-01-29T15:43:26.996Z,99126.63
2023-01-29T15:45:59.721Z,99105.84
2023-01-29T15:48:39.663Z,99113.34
2023-01-29T15:51:16.947Z,99155.31
2023-01-29T15:53:55.217Z,99146.59
2023-01-29T15:56:38.724Z,99148.53
2023-01-29T15:59:09.807Z,99145.03
2023-01-29T16:01:37.074Z,99113.78
2023-01-29T16:04:04.654Z,99106.41
2023-01-29T16:06:38.931Z,99112.13
2023-01-29T16:09:07.485Z,99069.41
2023-01-29T16:11:37.794Z,99087.16
2023-01-29T16:14:06.516Z,99102.88
2023-01-29T16:16:33.424Z,99079.78
2023-01-29T16:19:01.489Z,99089.19
2023-01-29T16:21:37.033Z,99096.56
2023-01-29T16:24:12.626Z,99088.28
2023-01-29T16:26:45.524Z,99095.91
2023-01-29T16:29:20.639Z,99091.50
2023-01-29T16:31:50.662Z,99046.47
2023-01-29T16:34:40.165Z,99088.91
2023-01-29T16:37:20.139Z,99087.34
2023-01-29T16:39:49.188Z,99071.63
2023-01-29T16:42:16.029Z,99074.19
2023-01-29T16:45:03.406Z,99062.34
2023-01-29T16:47:36.326Z,99058.19
2023-01-29T16:50:03.256Z,99102.25
2023-01-29T16:52:34.431Z,99060.84
2023-01-29T16:55:13.677Z,99067.78
2023-01-29T16:57:41.840Z,99050.19
2023-01-29T17:00:20.096Z,99069.81
2023-01-29T17:02:50.734Z,99074.47
2023-01-29T17:05:29.413Z,99073.06
2023-01-29T17:07:58.049Z,99082.41
2023-01-29T17:10:26.699Z,99061.53
2023-01-29T17:12:58.543Z,99042.94
2023-01-29T17:15:43.846Z,99065.41
2023-01-29T17:18:24.427Z,99056.00
2023-01-29T17:20:52.139Z,99066.41
2023-01-29T17:23:19.479Z,99062.16
2023-01-29T17:25:47.761Z,99071.47
2023-01-29T17:28:17.476Z,99067.06
2023-01-29T17:30:50.684Z,99081.00
2023-01-29T17:33:20.986Z,99062.00
2023-01-29T17:35:50.118Z,99071.22
2023-01-29T17:38:26.034Z,99053.69
2023-01-29T17:41:02.296Z,99050.88
2023-01-29T17:43:30.345Z,99051.00
2023-01-29T17:45:57.301Z,99035.59
2023-01-29T17:48:27.805Z,99036.94
2023-01-29T17:50:57.783Z,99057.19
2023-01-29T17:53:26.560Z,99042.91
2023-01-29T17:55:57.786Z,99032.09
2023-01-29T17:58:28.055Z,99029.59
2023-01-29T18:00:56.513Z,99039.31
2023-01-29T18:03:23.552Z,99042.34
2023-01-29T18:05:51.111Z,99027.38
2023-01-29T18:08:32.066Z,99048.19
2023-01-29T18:11:00.566Z,99025.91
2023-01-29T18:13:28.311Z,99040.84
2023-01-29T18:15:55.378Z,99034.09
2023-01-29T18:18:24.183Z,99005.28
2023-01-29T18:20:51.833Z,99009.28
2023-01-29T18:23:19.193Z,99052.72
2023-01-29T18:25:46.245Z,99034.72
2023-01-29T18:28:16.445Z,99025.66
2023-01-29T18:30:44.863Z,99014.25
2023-01-29T18:33:11.899Z,99036.53
2023-01-29T18:35:39.050Z,99046.50
2023-01-29T18:38:05.959Z,99045.84
2023-01-29T18:40:34.268Z,99018.31
2023-01-29T18:43:01.177Z,99027.66
2023-01-29T18:45:28.781Z,99015.91
2023-01-29T18:47:56.092Z,99043.19
2023-01-29T18:50:23.499Z,99009.00
2023-01-29T18:52:50.703Z,99019.66
2023-01-29T18:55:18.142Z,99021.88
2023-01-29T18:58:26.269Z,99024.44
2023-01-29T19:00:32.722Z,99008.50
2023-01-29T19:02:59.618Z,99013.78
2023-01-29T19:05:26.712Z,98999.66
2023-01-29T19:07:53.678Z,99008.50
2023-01-29T19:10:20.562Z,99000.78
2023-01-29T19:12:47.513Z,98983.34
2023-01-29T19:15:14.597Z,98981.84
2023-01-29T19:17:41.653Z,98999.50
2023-01-29T19:20:09.253Z,98983.34
2023-01-29T19:22:38.599Z,98975.53
2023-01-29T19:25:05.952Z,98977.47
2023-01-29T19:27:32.804Z,98983.22
2023-01-29T19:29:59.873Z,98977.94
2023-01-29T19:32:26.974Z,98982.88
2023-01-29T19:34:53.880Z,98969.22
2023-01-29T19:37:22.235Z,98977.56
2023-01-29T19:39:49.330Z,98971.84
2023-01-29T19:42:16.493Z,98979.16
2023-01-29T19:44:43.643Z,98970.66
2023-01-29T19:47:10.704Z,98970.47
2023-01-29T19:49:38.879Z,98958.28
2023-01-29T19:52:06.856Z,98957.19
2023-01-29T19:54:33.794Z,98968.34
2023-01-29T19:57:00.734Z,98965.03
2023-01-29T19:59:29.502Z,98983.84
2023-01-29T20:01:56.421Z,98962.69
2023-01-29T20:04:23.382Z,98954.16
2023-01-29T20:06:50.287Z,98944.28
2023-01-29T20:09:17.316Z,98951.72
2023-01-29T20:11:44.995Z,98965.97
2023-01-29T20:14:11.934Z,98975.91
2023-01-29T20:16:40.007Z,98957.25
2023-01-29T20:19:13.738Z,98970.94
2023-01-29T20:21:45.388Z,98947.63
2023-01-29T20:24:13.533Z,98981.31
2023-01-29T20:26:40.683Z,98951.97
2023-01-29T20:29:07.621Z,98946.66
2023-01-29T20:31:34.475Z,98951.09
2023-01-29T20:34:01.441Z,98960.78
2023-01-29T20:36:28.355Z,98945.25
2023-01-29T20:38:55.280Z,98957.34
2023-01-29T20:41:22.093Z,98975.03
2023-01-29T20:43:49.120Z,98954.78
2023-01-29T20:46:16.070Z,98944.84
2023-01-29T20:48:44.766Z,98958.22
2023-01-29T20:51:16.827Z,98961.16
2023-01-29T20:53:45.895Z,98992.53
2023-01-29T20:56:14.760Z,98940.97
2023-01-29T20:58:43.523Z,98960.63
2023-01-29T21:01:17.605Z,98964.03
2023-01-29T21:03:45.340Z,98974.84
2023-01-29T21:06:13.547Z,98955.88
2023-01-29T21:08:41.138Z,98976.59
2023-01-29T21:11:09.678Z,98958.13
2023-01-29T21:13:37.443Z,98975.84
2023-01-29T21:16:04.670Z,98987.59
2023-01-29T21:18:31.687Z,98961.66
2023-01-29T21:20:58.543Z,98953.50
2023-01-29T21:23:25.687Z,98956.28
2023-01-29T21:25:52.624Z,98945.50
2023-01-29T21:28:19.575Z,98972.81
2023-01-29T21:30:46.457Z,98965.13
2023-01-29T21:33:13.596Z,98948.09
2023-01-29T21:35:40.475Z,98961.56
2023-01-29T21:38:07.331Z,98941.59
2023-01-29T21:40:34.302Z,98955.31
2023-01-29T21:43:01.264Z,98936.34
2023-01-29T21:45:28.177Z,98936.22
2023-01-29T21:47:55.119Z,98968.47
2023-01-29T21:50:22.047Z,98952.84
2023-01-29T21:52:49.049Z,98950.25
2023-01-29T21:55:15.965Z,98952.94
2023-01-29T21:57:42.780Z,98943.00
2023-01-29T22:00:10.748Z,98937.50
2023-01-29T22:02:37.685Z,98924.97
2023-01-29T22:05:18.038Z,98898.34
2023-01-29T22:07:49.583Z,98931.13
2023-01-29T22:10:18.393Z,98918.94
2023-01-29T22:12:45.900Z,98928.66
2023-01-29T22:15:13.500Z,98906.00
2023-01-29T22:17:40.725Z,98900.38
2023-01-29T22:20:13.379Z,98909.63
2023-01-29T22:22:40.650Z,98896.72
2023-01-29T22:25:08.203Z,98880.50
2023-01-29T22:27:35.207Z,98893.47
2023-01-29T22:30:02.164Z,98889.22
2023-01-29T22:32:29.184Z,98905.53
2023-01-29T22:34:56.164Z,98908.13
2023-01-29T22:37:23.139Z,98906.63
2023-01-29T22:39:50.028Z,98895.81
2023-01-29T22:42:19.320Z,98892.75
2023-01-29T22:44:47.582Z,98889.53
2023-01-29T22:47:14.424Z,98890.84
2023-01-29T22:49:41.286Z,98906.16
2023-01-29T22:52:08.285Z,98877.69
2023-01-29T22:54:35.423Z,98886.09
2023-01-29T22:57:02.742Z,98878.53
2023-01-29T22:59:30.247Z,98856.28
2023-01-29T23:01:57.940Z,98871.38
2023-01-29T23:04:24.881Z,98877.19
2023-01-29T23:06:51.803Z,98852.53
2023-01-29T23:09:18.737Z,98878.50
2023-01-29T23:11:45.789Z,98858.66
2023-01-29T23:14:12.640Z,98876.56
2023-01-29T23:16:39.652Z,98877.63
2023-01-29T23:19:07.688Z,98864.47
2023-01-29T23:21:37.317Z,98894.22
2023-01-29T23:24:04.607Z,98869.06
2023-01-29T23:26:31.611Z,98876.28
2023-01-29T23:28:59.211Z,98872.88
2023-01-29T23:31:26.832Z,98851.72
2023-01-29T23:33:53.740Z,98869.81
2023-01-29T23:36:21.652Z,98853.97
2023-01-29T23:38:48.750Z,98849.88
2023-01-29T23:41:15.743Z,98872.59
2023-01-29T23:43:43.754Z,98848.06
2023-01-29T23:46:12.063Z,98847.09
2023-01-29T23:48:38.958Z,98870.31
2023-01-29T23:51:06.227Z,98883.19
2023-01-29T23:53:33.164Z,98861.94
2023-01-29T23:56:03.814Z,98864.53
2023-01-29T23:58:32.065Z,98860.09
